Flight Track Log - Related Links

Times and Time Zones

All times are in EDT time to prevent confusion due to time zone crossing. See the EJM585 flight status page for this flight to view local times or setup timezone preferences in your user account.

Time Position Orientation Groundspeed Altitude Reporting Facility
EDT Latitude Longitude Course Direction KTS MPH feet Rate Location/Type
Wed 05:17:43 PM 38.9000 -77.4333 218° Southwest 200 230 2,100  Level Potomac TRACON
Wed 05:19:50 PM 38.7711 -77.4928 200° South 236 272 9,100 3,273 Climbing Washington Center
Wed 05:20:50 PM 38.7053 -77.5683 222° Southwest 274 315 12,300 3,124 Climbing Washington Center
Wed 05:21:51 PM 38.6069 -77.5869 188° South 326 375 15,400 2,975 Climbing Washington Center
Wed 05:22:51 PM 38.4967 -77.5839 179° South 353 406 18,300 2,678 Climbing Washington Center
Wed 05:23:00 PM 38.3725 -77.5942 218° Southwest  Level FlightAware Approximate
Wed 05:23:52 PM 38.3833 -77.6286 197° South 392 451 20,800  Level Washington Center
Wed 05:24:51 PM 38.2878 -77.7317 220° Southwest 429 494 23,400 2,400 Climbing Washington Center
Wed 05:25:52 PM 38.2017 -77.8642 230° Southwest 447 514 25,600 2,033 Climbing Washington Center
Wed 05:26:52 PM 38.1017 -77.9744 221° Southwest 468 539 27,500 1,983 Climbing Washington Center
Wed 05:27:50 PM 37.9953 -78.0792 218° Southwest 486 559 29,500 2,237 Climbing Washington Center
Wed 05:28:50 PM 37.8781 -78.2017 220° Southwest 501 577 31,900 2,430 Climbing Washington Center
Wed 05:29:51 PM 37.7669 -78.3108 218° Southwest 501 577 34,400 2,033 Climbing Washington Center
Wed 05:30:51 PM 37.6603 -78.4144 218° Southwest 506 582 36,000 397 Climbing Washington Center
Wed 05:31:52 PM 37.5578 -78.5181 219° Southwest 496 571 35,200 -744 Descending Washington Center
Wed 05:32:52 PM 37.4617 -78.6111 218° Southwest 490 564 34,500 -610 Descending Washington Center
Wed 05:33:50 PM 37.3567 -78.7142 218° Southwest 490 564 34,000 -254 Descending Washington Center
Wed 05:34:50 PM 37.2497 -78.8194 218° Southwest 490 564 34,000  Level Washington Center
Wed 05:35:51 PM 37.1425 -78.9244 218° Southwest 490 564 34,000  Level Washington Center
Wed 05:36:52 PM 37.0225 -79.0389 217° Southwest 490 564 34,000  Level Washington Center
Wed 05:37:50 PM 36.9172 -79.1406 218° Southwest 495 570 34,000  Level Washington Center
Wed 05:38:51 PM 36.8097 -79.2447 218° Southwest 495 570 34,000  Level Washington Center
Wed 05:41:04 PM 36.5858 -79.4575 217° Southwest 472 543 34,000  Level Atlanta Center
Wed 05:42:04 PM 36.4833 -79.5589 219° Southwest 472 543 34,000  Level Atlanta Center
Wed 05:43:04 PM 36.3744 -79.6603 217° Southwest 472 543 34,000  Level Atlanta Center
Wed 05:44:04 PM 36.2633 -79.7667 218° Southwest 472 543 34,000  Level Atlanta Center
Wed 05:45:04 PM 36.1583 -79.8650 217° Southwest 472 543 34,000  Level Atlanta Center
Wed 05:46:04 PM 36.0444 -79.9478 210° Southwest 472 543 34,000  Level Atlanta Center
Wed 05:47:04 PM 35.9186 -79.9928 196° South 472 543 34,000  Level Atlanta Center
Wed 05:48:04 PM 35.7989 -80.0294 194° South 478 550 34,000  Level Atlanta Center
Wed 05:49:04 PM 35.6567 -80.0822 197° South 485 558 34,000  Level Atlanta Center
Wed 05:50:04 PM 35.5306 -80.1217 194° South 485 558 34,000  Level Atlanta Center
Wed 05:51:04 PM 35.4025 -80.1633 195° South 485 558 34,000  Level Atlanta Center
Wed 05:52:04 PM 35.2911 -80.2042 197° South 480 552 34,000  Level Atlanta Center
Wed 05:53:04 PM 35.1611 -80.2458 195° South 475 547 34,000  Level Atlanta Center
Wed 05:55:28 PM 34.8539 -80.3475 195° South 475 547 34,000  Level Jacksonville Center
Wed 05:56:28 PM 34.7150 -80.3947 196° South 475 547 34,000 -200 Level Jacksonville Center
Wed 05:57:28 PM 34.5886 -80.4336 194° South 475 547 33,600 -950 Descending Jacksonville Center
Wed 05:58:28 PM 34.4600 -80.4775 196° South 475 547 32,100 -1,500 Descending Jacksonville Center
Wed 05:59:28 PM 34.3314 -80.5164 194° South 475 547 30,600 -1,050 Descending Jacksonville Center
Wed 06:00:28 PM 34.1989 -80.5603 195° South 481 554 30,000 -300 Descending Jacksonville Center
Wed 06:01:28 PM 34.0703 -80.6011 195° South 486 559 30,000  Level Jacksonville Center
Wed 06:02:28 PM 33.9375 -80.6447 195° South 491 565 30,000  Level Jacksonville Center
Wed 06:03:28 PM 33.8089 -80.6856 195° South 486 559 30,000  Level Jacksonville Center
Wed 06:04:28 PM 33.6758 -80.7264 194° South 486 559 30,000  Level Jacksonville Center
Wed 06:05:28 PM 33.5453 -80.7694 195° South 491 565 30,000 -800 Level Jacksonville Center
Wed 06:06:28 PM 33.4164 -80.8072 194° South 491 565 28,400 -1,800 Descending Jacksonville Center
Wed 06:07:28 PM 33.2836 -80.8478 194° South 491 565 26,400 -2,000 Descending Jacksonville Center
Wed 06:08:28 PM 33.1611 -80.8903 196° South 485 558 24,400 -2,450 Descending Jacksonville Center
Wed 06:09:28 PM 33.0406 -80.9275 195° South 474 545 21,500 -3,050 Descending Jacksonville Center
Wed 06:10:28 PM 32.9242 -80.9622 194° South 448 516 18,300 -3,250 Descending Jacksonville Center
Wed 06:11:28 PM 32.8142 -80.9967 195° South 428 493 15,000 -3,400 Descending Jacksonville Center
Wed 06:12:28 PM 32.7122 -81.0261 194° South 407 468 11,500 -2,800 Descending Jacksonville Center
Wed 06:13:28 PM 32.6311 -81.0525 195° South 348 400 9,400 -1,700 Descending Jacksonville Center
Wed 06:14:28 PM 32.5547 -81.1008 208° Southwest 289 333 8,100 -1,400 Descending Jacksonville Center
Wed 06:15:28 PM 32.4886 -81.1564 215° Southwest 294 338 6,600 -1,200 Descending Jacksonville Center
Wed 06:16:28 PM 32.4308 -81.2042 215° Southwest 294 338 5,700 -950 Descending Jacksonville Center
Wed 06:17:28 PM 32.3689 -81.2594 217° Southwest 280 322 4,700 -1,050 Descending Jacksonville Center
Wed 06:18:28 PM 32.2942 -81.2903 199° South 268 308 3,600 -1,050 Descending Jacksonville Center
Wed 06:19:28 PM 32.2214 -81.3014 187° South 263 303 2,600 -900 Descending Jacksonville Center
Wed 06:20:28 PM 32.1525 -81.3075 184° South 262 302 1,800 -800 Descending Jacksonville Center
Wed 06:22:00 PM 32.1167 -81.2000 North  Level FlightAware Approximate
Wed 06:29:00 PM 32.1276 -81.2021 North  Level Estimated
Wed 06:30:00 PM 32.1276 -81.2021 North  Level Estimated
Wed 06:31:00 PM 32.1276 -81.2021 North  Level Estimated
Wed 06:32:00 PM 32.1276 -81.2021 North  Level Estimated
Wed 06:33:00 PM 32.1276 -81.2021 North  Level Estimated
Wed 06:34:00 PM 32.1276 -81.2021 North  Level Estimated

Login

Don't have an account? Register now (free) for customized features, flight alerts, and more!